createdAt,value
2023-05-06T00:02:17.685Z,12.22
2023-05-06T00:04:45.967Z,12.22
2023-05-06T00:07:14.238Z,12.55
2023-05-06T00:09:42.295Z,12.93
2023-05-06T00:12:10.466Z,13.23
2023-05-06T00:14:38.743Z,13.45
2023-05-06T00:17:07.337Z,13.65
2023-05-06T00:19:35.496Z,13.76
2023-05-06T00:22:03.567Z,13.52
2023-05-06T00:24:31.735Z,13.24
2023-05-06T00:26:59.912Z,13.00
2023-05-06T00:29:28.088Z,12.80
2023-05-06T00:31:56.359Z,12.63
2023-05-06T00:34:24.632Z,12.49
2023-05-06T00:36:52.704Z,12.39
2023-05-06T00:39:21.386Z,12.29
2023-05-06T00:41:49.561Z,12.21
2023-05-06T00:44:17.629Z,12.21
2023-05-06T00:46:46.006Z,12.55
2023-05-06T00:49:14.209Z,12.94
2023-05-06T00:51:42.451Z,13.25
2023-05-06T00:54:10.832Z,13.53
2023-05-06T00:56:39.307Z,13.64
2023-05-06T00:59:07.394Z,13.36
2023-05-06T01:01:35.805Z,13.07
2023-05-06T01:04:04.424Z,12.82
2023-05-06T01:06:58.930Z,12.62
2023-05-06T01:09:57.830Z,12.43
2023-05-06T01:12:46.911Z,12.27
2023-05-06T01:15:22.621Z,12.24
2023-05-06T01:17:52.269Z,12.58
2023-05-06T01:20:21.543Z,12.94
2023-05-06T01:22:50.226Z,13.23
2023-05-06T01:25:22.177Z,13.45
2023-05-06T01:27:50.768Z,13.62
2023-05-06T01:30:19.966Z,13.74
2023-05-06T01:33:04.545Z,13.46
2023-05-06T01:35:50.208Z,13.11
2023-05-06T01:38:34.572Z,12.85
2023-05-06T01:41:03.552Z,12.66
2023-05-06T01:43:37.758Z,12.53
2023-05-06T01:46:07.306Z,12.41
2023-05-06T01:48:37.494Z,12.37
2023-05-06T01:51:05.839Z,12.64
2023-05-06T01:53:34.038Z,12.97
2023-05-06T01:56:02.426Z,13.22
2023-05-06T01:58:30.706Z,13.39
2023-05-06T02:00:58.753Z,13.55
2023-05-06T02:03:27.113Z,13.68
2023-05-06T02:05:55.824Z,13.81
2023-05-06T02:08:25.852Z,13.92
2023-05-06T02:10:54.320Z,14.02
2023-05-06T02:13:23.305Z,14.07
2023-05-06T02:15:55.064Z,14.13
2023-05-06T02:18:24.048Z,14.14
2023-05-06T02:20:52.323Z,14.15
2023-05-06T02:23:20.495Z,14.18
2023-05-06T02:25:48.578Z,14.19
2023-05-06T02:28:16.846Z,14.19
2023-05-06T02:30:45.117Z,14.18
2023-05-06T02:33:13.191Z,14.18
2023-05-06T02:35:41.256Z,14.17
2023-05-06T02:38:10.250Z,14.16
2023-05-06T02:40:38.546Z,14.14
2023-05-06T02:43:07.018Z,14.09
2023-05-06T02:45:35.619Z,14.07
2023-05-06T02:48:04.226Z,14.01
2023-05-06T02:50:32.556Z,13.91
2023-05-06T02:53:00.711Z,13.86
2023-05-06T02:55:28.890Z,13.76
2023-05-06T02:57:57.083Z,13.63
2023-05-06T03:00:25.250Z,13.56
2023-05-06T03:02:53.507Z,13.48
2023-05-06T03:05:21.885Z,13.42
2023-05-06T03:07:50.161Z,13.38
2023-05-06T03:10:18.546Z,13.33
2023-05-06T03:12:47.148Z,13.28
2023-05-06T03:15:15.497Z,13.25
2023-05-06T03:17:43.699Z,13.23
2023-05-06T03:20:13.173Z,13.17
2023-05-06T03:22:44.105Z,13.13
2023-05-06T03:25:12.628Z,13.09
2023-05-06T03:27:41.778Z,13.09
2023-05-06T03:30:16.505Z,13.06
2023-05-06T03:32:45.113Z,13.03
2023-05-06T03:35:15.905Z,13.01
2023-05-06T03:37:45.433Z,12.98
2023-05-06T03:40:13.920Z,12.94
2023-05-06T03:42:42.085Z,12.91
2023-05-06T03:45:11.108Z,12.88
2023-05-06T03:47:39.885Z,12.87
2023-05-06T03:50:09.151Z,12.87
2023-05-06T03:52:38.051Z,12.84
2023-05-06T03:55:07.523Z,12.82
2023-05-06T03:57:36.857Z,12.81
2023-05-06T04:00:06.458Z,12.75
2023-05-06T04:02:44.302Z,12.66
2023-05-06T04:05:17.547Z,12.64
2023-05-06T04:07:46.430Z,12.67
2023-05-06T04:10:14.724Z,12.65
2023-05-06T04:12:44.001Z,12.60
2023-05-06T04:15:13.914Z,12.52
2023-05-06T04:17:43.585Z,12.45
2023-05-06T04:20:12.626Z,12.42
2023-05-06T04:22:41.501Z,12.36
2023-05-06T04:25:11.169Z,12.33
2023-05-06T04:27:39.694Z,12.30
2023-05-06T04:30:10.302Z,12.28
2023-05-06T04:32:40.765Z,12.26
2023-05-06T04:35:10.327Z,12.25
2023-05-06T04:37:39.762Z,12.25
2023-05-06T04:40:15.919Z,12.28
2023-05-06T04:42:44.601Z,12.27
2023-05-06T04:45:18.197Z,12.29
2023-05-06T04:47:48.957Z,12.26
2023-05-06T04:50:18.127Z,12.26
2023-05-06T04:52:46.302Z,12.25
2023-05-06T04:55:14.991Z,12.24
2023-05-06T04:57:47.499Z,12.25
2023-05-06T05:00:16.767Z,12.28
2023-05-06T05:02:45.198Z,12.30
2023-05-06T05:05:14.514Z,12.33
2023-05-06T05:07:43.526Z,12.37
2023-05-06T05:10:11.797Z,12.40
2023-05-06T05:12:40.309Z,12.41
2023-05-06T05:15:09.340Z,12.39
2023-05-06T05:17:38.191Z,12.39
2023-05-06T05:20:08.078Z,12.40
2023-05-06T05:22:37.480Z,12.39
2023-05-06T05:25:08.447Z,12.39
2023-05-06T05:27:36.994Z,12.37
2023-05-06T05:30:05.890Z,12.32
2023-05-06T05:32:35.664Z,12.29
2023-05-06T05:35:05.937Z,12.28
2023-05-06T05:37:34.907Z,12.27
2023-05-06T05:40:03.491Z,12.29
2023-05-06T05:42:33.934Z,12.31
2023-05-06T05:45:04.951Z,12.29
2023-05-06T05:47:33.992Z,12.28
2023-05-06T05:50:02.323Z,12.28
2023-05-06T05:52:31.717Z,12.22
2023-05-06T05:55:00.916Z,12.15
2023-05-06T05:57:29.195Z,12.10
2023-05-06T05:59:57.770Z,12.07
2023-05-06T06:02:26.416Z,12.05
2023-05-06T06:04:55.017Z,12.03
2023-05-06T06:07:24.443Z,11.99
2023-05-06T06:09:52.622Z,11.99
2023-05-06T06:12:20.995Z,12.01
2023-05-06T06:14:49.158Z,12.03
2023-05-06T06:17:19.375Z,12.05
2023-05-06T06:19:47.696Z,12.09
2023-05-06T06:22:15.831Z,12.13
2023-05-06T06:24:45.125Z,12.18
2023-05-06T06:27:13.295Z,12.20
2023-05-06T06:29:41.675Z,12.20
2023-05-06T06:32:09.803Z,12.17
2023-05-06T06:34:38.030Z,12.15
2023-05-06T06:37:07.852Z,12.14
2023-05-06T06:39:36.336Z,12.12
2023-05-06T06:42:04.592Z,12.09
2023-05-06T06:44:37.773Z,12.07
2023-05-06T06:47:06.156Z,12.05
2023-05-06T06:49:34.229Z,12.05
2023-05-06T06:52:02.493Z,12.07
2023-05-06T06:54:30.773Z,12.07
2023-05-06T06:56:58.945Z,12.09
2023-05-06T06:59:27.013Z,12.09
2023-05-06T07:01:55.081Z,12.10
2023-05-06T07:04:25.124Z,12.19
2023-05-06T07:06:53.373Z,12.26
2023-05-06T07:09:21.445Z,12.30
2023-05-06T07:11:49.617Z,12.36
2023-05-06T07:14:17.801Z,12.45
2023-05-06T07:16:47.121Z,12.57
2023-05-06T07:19:16.281Z,12.66
2023-05-06T07:21:44.571Z,12.66
2023-05-06T07:24:12.788Z,12.74
2023-05-06T07:26:40.919Z,12.84
2023-05-06T07:29:09.078Z,12.89
2023-05-06T07:31:37.232Z,12.94
2023-05-06T07:34:05.620Z,12.92
2023-05-06T07:36:40.420Z,12.92
2023-05-06T07:39:08.628Z,12.90
2023-05-06T07:41:36.797Z,12.88
2023-05-06T07:44:06.068Z,12.87
2023-05-06T07:46:34.380Z,12.91
2023-05-06T07:49:02.565Z,12.93
2023-05-06T07:51:31.635Z,12.94
2023-05-06T07:53:59.707Z,12.95
2023-05-06T07:56:27.990Z,13.01
2023-05-06T07:58:56.224Z,13.03
2023-05-06T08:01:24.340Z,13.09
2023-05-06T08:03:52.567Z,13.10
2023-05-06T08:06:20.976Z,13.08
2023-05-06T08:08:49.053Z,13.06
2023-05-06T08:11:19.332Z,13.05
2023-05-06T08:13:47.751Z,13.04
2023-05-06T08:16:16.129Z,13.10
2023-05-06T08:18:44.297Z,13.16
2023-05-06T08:21:12.573Z,13.23
2023-05-06T08:23:40.849Z,13.28
2023-05-06T08:26:09.021Z,13.24
2023-05-06T08:28:37.089Z,13.21
2023-05-06T08:31:05.978Z,13.20
2023-05-06T08:33:34.179Z,13.22
2023-05-06T08:36:02.326Z,13.29
2023-05-06T08:38:30.404Z,13.39
2023-05-06T08:41:01.113Z,13.47
2023-05-06T08:43:33.191Z,13.54
2023-05-06T08:46:01.784Z,13.61
2023-05-06T08:48:30.165Z,13.71
2023-05-06T08:51:01.288Z,13.80
2023-05-06T08:53:30.694Z,13.94
2023-05-06T08:56:04.157Z,14.03
2023-05-06T08:58:43.421Z,14.08
2023-05-06T09:01:11.616Z,14.16
2023-05-06T09:03:39.881Z,14.24
2023-05-06T09:06:08.050Z,14.31
2023-05-06T09:08:36.530Z,14.31
2023-05-06T09:11:19.929Z,14.29
2023-05-06T09:13:48.254Z,14.21
2023-05-06T09:16:29.947Z,14.15
2023-05-06T09:18:59.417Z,14.14
2023-05-06T09:21:33.942Z,14.11
2023-05-06T09:24:03.964Z,14.03
2023-05-06T09:26:33.272Z,13.95
2023-05-06T09:29:02.370Z,13.94
2023-05-06T09:31:30.680Z,13.96
2023-05-06T09:34:01.152Z,13.99
2023-05-06T09:36:29.225Z,14.08
2023-05-06T09:38:58.007Z,14.14
2023-05-06T09:41:26.123Z,14.09
2023-05-06T09:43:55.571Z,14.04
2023-05-06T09:46:25.354Z,14.03
2023-05-06T09:48:55.787Z,14.02
2023-05-06T09:51:23.999Z,14.03
2023-05-06T09:53:52.776Z,14.04
2023-05-06T09:56:21.664Z,14.04
2023-05-06T09:58:51.080Z,14.03
2023-05-06T10:01:32.793Z,14.05
2023-05-06T10:04:09.423Z,14.12
2023-05-06T10:06:40.814Z,14.21
2023-05-06T10:09:09.762Z,14.28
2023-05-06T10:11:38.972Z,14.39
2023-05-06T10:14:07.441Z,14.47
2023-05-06T10:16:37.307Z,14.54
2023-05-06T10:19:06.936Z,14.64
2023-05-06T10:21:36.766Z,14.68
2023-05-06T10:24:11.912Z,14.72
2023-05-06T10:26:41.204Z,14.72
2023-05-06T10:29:10.970Z,14.72
2023-05-06T10:31:44.430Z,14.74
2023-05-06T10:34:12.679Z,14.74
2023-05-06T10:36:43.440Z,14.74
2023-05-06T10:39:13.918Z,14.78
2023-05-06T10:41:42.825Z,14.80
2023-05-06T10:44:11.098Z,14.78
2023-05-06T10:46:59.928Z,14.78
2023-05-06T10:49:28.236Z,14.77
2023-05-06T10:52:12.029Z,14.75
2023-05-06T10:54:51.421Z,14.72
2023-05-06T10:57:22.738Z,14.71
2023-05-06T10:59:50.926Z,14.72
2023-05-06T11:02:20.443Z,14.72
2023-05-06T11:04:53.306Z,14.69
2023-05-06T11:07:23.252Z,14.65
2023-05-06T11:09:56.060Z,14.64
2023-05-06T11:12:52.962Z,14.64
2023-05-06T11:15:27.493Z,14.66
2023-05-06T11:17:56.663Z,14.65
2023-05-06T11:20:26.292Z,14.60
2023-05-06T11:22:54.755Z,14.57
2023-05-06T11:25:42.759Z,14.53
2023-05-06T11:28:12.392Z,14.52
2023-05-06T11:30:44.730Z,14.53
2023-05-06T11:33:19.485Z,14.54
2023-05-06T11:35:48.174Z,14.58
2023-05-06T11:38:16.351Z,14.67
2023-05-06T11:40:44.422Z,14.77
2023-05-06T11:43:13.911Z,14.82
2023-05-06T11:45:47.113Z,14.83
2023-05-06T11:48:16.319Z,14.81
2023-05-06T11:50:46.505Z,14.84
2023-05-06T11:53:16.757Z,14.84
2023-05-06T11:55:46.426Z,14.85
2023-05-06T11:58:18.928Z,14.87
2023-05-06T12:00:58.394Z,14.88
2023-05-06T12:03:28.891Z,14.90
2023-05-06T12:05:57.784Z,14.85
2023-05-06T12:08:29.948Z,14.78
2023-05-06T12:11:02.883Z,14.70
2023-05-06T12:13:31.514Z,14.68
2023-05-06T12:16:00.267Z,14.68
2023-05-06T12:18:29.196Z,14.69
2023-05-06T12:20:57.775Z,14.68
2023-05-06T12:23:25.942Z,14.73
2023-05-06T12:26:06.951Z,14.79
2023-05-06T12:28:36.598Z,14.82
2023-05-06T12:31:24.329Z,14.73
2023-05-06T12:33:53.311Z,14.67
2023-05-06T12:36:22.954Z,14.65
2023-05-06T12:38:56.145Z,14.62
2023-05-06T12:41:37.330Z,14.63
2023-05-06T12:44:33.572Z,14.57
2023-05-06T12:47:03.769Z,14.46
2023-05-06T12:50:04.624Z,14.38
2023-05-06T12:52:32.681Z,14.38
2023-05-06T12:55:02.591Z,14.37
2023-05-06T12:57:30.770Z,14.31
2023-05-06T12:59:59.040Z,14.28
2023-05-06T13:02:27.208Z,14.28
2023-05-06T13:04:57.129Z,14.28
2023-05-06T13:07:25.499Z,14.29
2023-05-06T13:09:53.688Z,14.27
2023-05-06T13:12:21.742Z,14.27
2023-05-06T13:14:49.815Z,14.23
2023-05-06T13:17:18.023Z,14.18
2023-05-06T13:19:46.572Z,14.16
2023-05-06T13:22:14.693Z,14.19
2023-05-06T13:24:43.019Z,14.21
2023-05-06T13:27:11.803Z,14.24
2023-05-06T13:29:39.975Z,14.25
2023-05-06T13:32:09.081Z,14.23
2023-05-06T13:34:37.561Z,14.26
2023-05-06T13:37:05.927Z,14.32
2023-05-06T13:39:34.099Z,14.36
2023-05-06T13:42:03.494Z,14.40
2023-05-06T13:44:33.208Z,14.40
2023-05-06T13:47:01.488Z,14.35
2023-05-06T13:49:29.655Z,14.31
2023-05-06T13:51:58.541Z,14.23
2023-05-06T13:54:26.624Z,14.14
2023-05-06T13:56:55.094Z,14.09
2023-05-06T13:59:23.265Z,14.02
2023-05-06T14:01:54.311Z,13.99
2023-05-06T14:04:22.576Z,13.97
2023-05-06T14:06:50.753Z,13.95
2023-05-06T14:09:19.233Z,13.94
2023-05-06T14:11:47.504Z,13.95
2023-05-06T14:14:15.798Z,13.98
2023-05-06T14:16:44.010Z,13.99
2023-05-06T14:19:12.230Z,14.01
2023-05-06T14:21:40.294Z,14.02
2023-05-06T14:24:10.295Z,13.98
2023-05-06T14:26:39.122Z,13.93
2023-05-06T14:29:07.274Z,13.91
2023-05-06T14:31:35.607Z,13.91
2023-05-06T14:34:04.539Z,13.92
2023-05-06T14:36:32.707Z,13.96
2023-05-06T14:39:00.987Z,13.96
2023-05-06T14:41:29.050Z,13.93
2023-05-06T14:43:57.224Z,13.93
2023-05-06T14:46:27.700Z,13.90
2023-05-06T14:48:57.468Z,13.84
2023-05-06T14:51:25.741Z,13.80
2023-05-06T14:53:53.812Z,13.78
2023-05-06T14:56:21.880Z,13.79
2023-05-06T14:58:50.367Z,13.85
2023-05-06T15:01:18.674Z,13.90
2023-05-06T15:03:46.903Z,13.96
2023-05-06T15:06:15.187Z,14.01
2023-05-06T15:08:43.363Z,13.97
2023-05-06T15:11:12.035Z,13.92
2023-05-06T15:13:40.209Z,13.83
2023-05-06T15:16:11.081Z,13.75
2023-05-06T15:18:41.942Z,13.70
2023-05-06T15:21:10.011Z,13.67
2023-05-06T15:23:38.139Z,13.56
2023-05-06T15:26:06.642Z,13.55
2023-05-06T15:28:34.778Z,13.52
2023-05-06T15:31:02.942Z,13.47
2023-05-06T15:33:31.117Z,13.43
2023-05-06T15:35:59.491Z,13.41
2023-05-06T15:38:27.665Z,13.39
2023-05-06T15:40:55.838Z,13.33
2023-05-06T15:43:24.942Z,13.31
2023-05-06T15:45:53.204Z,13.30
2023-05-06T15:48:21.692Z,13.35
2023-05-06T15:50:49.787Z,13.38
2023-05-06T15:53:19.166Z,13.36
2023-05-06T15:55:54.545Z,13.35
2023-05-06T15:58:26.158Z,13.32
2023-05-06T16:00:54.219Z,13.33
2023-05-06T16:03:22.453Z,13.30
2023-05-06T16:05:53.447Z,13.25
2023-05-06T16:08:21.602Z,13.22
2023-05-06T16:10:51.932Z,13.23
2023-05-06T16:13:23.149Z,13.19
2023-05-06T16:15:51.897Z,13.10
2023-05-06T16:18:20.030Z,13.02
2023-05-06T16:20:48.233Z,13.00
2023-05-06T16:23:16.574Z,13.01
2023-05-06T16:25:44.753Z,13.01
2023-05-06T16:28:13.228Z,13.04
2023-05-06T16:30:44.729Z,13.02
2023-05-06T16:33:13.462Z,13.01
2023-05-06T16:35:41.950Z,12.98
2023-05-06T16:38:10.120Z,12.96
2023-05-06T16:40:44.883Z,12.93
2023-05-06T16:43:13.220Z,12.91
2023-05-06T16:45:45.415Z,12.89
2023-05-06T16:48:14.474Z,12.88
2023-05-06T16:50:42.855Z,12.89
2023-05-06T16:53:11.136Z,12.88
2023-05-06T16:55:39.213Z,12.88
2023-05-06T16:58:07.375Z,12.90
2023-05-06T17:00:35.664Z,12.92
2023-05-06T17:03:04.236Z,12.88
2023-05-06T17:05:32.402Z,12.86
2023-05-06T17:08:00.572Z,12.84
2023-05-06T17:10:29.560Z,12.80
2023-05-06T17:12:58.509Z,12.69
2023-05-06T17:15:26.842Z,12.57
2023-05-06T17:17:55.236Z,12.47
2023-05-06T17:20:23.892Z,12.43
2023-05-06T17:22:52.575Z,12.37
2023-05-06T17:25:21.265Z,12.29
2023-05-06T17:27:49.326Z,12.27
2023-05-06T17:30:17.504Z,12.27
2023-05-06T17:32:45.697Z,12.27
2023-05-06T17:35:13.948Z,12.27
2023-05-06T17:37:42.025Z,12.29
2023-05-06T17:40:10.397Z,12.33
2023-05-06T17:42:39.196Z,12.36
2023-05-06T17:45:08.566Z,12.40
2023-05-06T17:47:36.879Z,12.42
2023-05-06T17:50:05.747Z,12.42
2023-05-06T17:52:33.815Z,12.40
2023-05-06T17:55:15.703Z,12.43
2023-05-06T17:57:44.930Z,12.45
2023-05-06T18:00:14.177Z,12.47
2023-05-06T18:02:43.692Z,12.47
2023-05-06T18:05:13.464Z,12.37
2023-05-06T18:07:42.409Z,12.39
2023-05-06T18:10:11.101Z,12.39
2023-05-06T18:12:39.454Z,12.40
2023-05-06T18:15:09.030Z,12.40
2023-05-06T18:17:37.760Z,12.37
2023-05-06T18:20:08.220Z,12.33
2023-05-06T18:22:36.470Z,12.30
2023-05-06T18:25:05.250Z,12.24
2023-05-06T18:27:33.420Z,12.27
2023-05-06T18:30:01.592Z,12.27
2023-05-06T18:32:29.775Z,12.28
2023-05-06T18:34:58.550Z,12.24
2023-05-06T18:37:29.705Z,12.23
2023-05-06T18:39:57.876Z,12.18
2023-05-06T18:42:27.739Z,12.15
2023-05-06T18:44:56.689Z,12.15
2023-05-06T18:47:25.981Z,12.15
2023-05-06T18:49:54.343Z,12.11
2023-05-06T18:52:22.626Z,12.12
2023-05-06T18:54:51.201Z,12.13
2023-05-06T18:57:19.831Z,12.12
2023-05-06T18:59:48.159Z,12.09
2023-05-06T19:02:16.432Z,12.07
2023-05-06T19:04:44.916Z,12.06
2023-05-06T19:07:16.036Z,12.01
2023-05-06T19:09:44.436Z,11.98
2023-05-06T19:12:12.505Z,12.00
2023-05-06T19:14:40.881Z,12.02
2023-05-06T19:17:09.082Z,12.04
2023-05-06T19:19:37.434Z,12.07
2023-05-06T19:22:05.502Z,12.10
2023-05-06T19:24:33.678Z,12.12
2023-05-06T19:27:02.156Z,12.13
2023-05-06T19:29:30.433Z,12.14
2023-05-06T19:31:58.804Z,12.14
2023-05-06T19:34:26.980Z,12.14
2023-05-06T19:36:55.974Z,12.16
2023-05-06T19:39:24.348Z,12.16
2023-05-06T19:41:53.952Z,12.18
2023-05-06T19:44:22.150Z,12.19
2023-05-06T19:46:54.452Z,12.21
2023-05-06T19:49:22.853Z,12.20
2023-05-06T19:51:51.146Z,12.19
2023-05-06T19:54:20.039Z,12.18
2023-05-06T19:56:48.125Z,12.16
2023-05-06T19:59:17.714Z,12.12
2023-05-06T20:01:46.084Z,12.08
2023-05-06T20:04:14.374Z,12.05
2023-05-06T20:06:42.536Z,12.02
2023-05-06T20:09:10.614Z,11.97
2023-05-06T20:11:38.787Z,11.92
2023-05-06T20:14:06.951Z,11.91
2023-05-06T20:16:35.190Z,11.92
2023-05-06T20:19:03.404Z,11.92
2023-05-06T20:21:31.677Z,11.89
2023-05-06T20:23:59.868Z,11.87
2023-05-06T20:26:28.020Z,11.88
2023-05-06T20:28:56.092Z,11.86
2023-05-06T20:31:24.240Z,11.81
2023-05-06T20:33:52.545Z,11.78
2023-05-06T20:36:21.223Z,11.76
2023-05-06T20:38:50.212Z,11.80
2023-05-06T20:41:18.367Z,11.79
2023-05-06T20:43:46.557Z,11.77
2023-05-06T20:46:15.087Z,11.73
2023-05-06T20:48:43.308Z,11.70
2023-05-06T20:51:11.489Z,11.66
2023-05-06T20:53:39.957Z,11.66
2023-05-06T20:56:16.728Z,11.67
2023-05-06T20:58:44.906Z,11.69
2023-05-06T21:01:13.423Z,11.68
2023-05-06T21:03:42.135Z,11.68
2023-05-06T21:06:10.344Z,11.72
2023-05-06T21:08:38.447Z,11.75
2023-05-06T21:11:06.683Z,11.75
2023-05-06T21:13:34.854Z,11.77
2023-05-06T21:16:03.443Z,11.80
2023-05-06T21:18:31.986Z,11.79
2023-05-06T21:21:00.402Z,11.78
2023-05-06T21:23:28.673Z,11.77
2023-05-06T21:25:58.499Z,11.77
2023-05-06T21:28:26.706Z,11.78
2023-05-06T21:30:54.838Z,11.76
2023-05-06T21:33:23.009Z,11.78
2023-05-06T21:35:51.175Z,11.80
2023-05-06T21:38:19.239Z,11.81
2023-05-06T21:40:47.514Z,11.85
2023-05-06T21:43:18.088Z,11.89
2023-05-06T21:45:46.219Z,11.93
2023-05-06T21:48:14.281Z,11.93
2023-05-06T21:50:42.560Z,11.94
2023-05-06T21:53:10.736Z,11.93
2023-05-06T21:55:38.905Z,11.95
2023-05-06T21:58:07.286Z,11.95
2023-05-06T22:00:35.566Z,11.94
2023-05-06T22:03:03.968Z,11.95
2023-05-06T22:05:32.308Z,11.97
2023-05-06T22:08:00.481Z,12.00
2023-05-06T22:10:28.972Z,12.02
2023-05-06T22:12:57.175Z,12.01
2023-05-06T22:15:25.514Z,12.02
2023-05-06T22:17:53.623Z,12.02
2023-05-06T22:20:22.885Z,11.98
2023-05-06T22:22:52.154Z,11.96
2023-05-06T22:25:20.561Z,11.97
2023-05-06T22:27:48.731Z,11.97
2023-05-06T22:30:17.330Z,11.97
2023-05-06T22:32:45.538Z,11.99
2023-05-06T22:35:13.960Z,11.98
2023-05-06T22:37:42.137Z,11.96
2023-05-06T22:40:11.227Z,11.98
2023-05-06T22:42:39.404Z,12.01
2023-05-06T22:45:08.962Z,12.03
2023-05-06T22:47:37.433Z,12.02
2023-05-06T22:50:07.093Z,12.02
2023-05-06T22:52:35.164Z,12.02
